createdAt,value
2018-02-09T00:00:47.579Z,89.07
2018-02-09T00:01:47.678Z,88.98
2018-02-09T00:02:47.700Z,88.88
2018-02-09T00:03:47.770Z,88.88
2018-02-09T00:04:47.826Z,89.07
2018-02-09T00:05:47.897Z,89.17
2018-02-09T00:06:47.951Z,88.98
2018-02-09T00:07:48.020Z,88.69
2018-02-09T00:08:48.081Z,88.98
2018-02-09T00:09:48.140Z,89.07
2018-02-09T00:10:48.207Z,88.98
2018-02-09T00:11:48.294Z,88.88
2018-02-09T00:12:48.347Z,88.98
2018-02-09T00:13:48.408Z,88.60
2018-02-09T00:14:48.468Z,88.88
2018-02-09T00:15:48.524Z,88.79
2018-02-09T00:16:48.594Z,88.60
2018-02-09T00:17:48.672Z,88.98
2018-02-09T00:18:48.716Z,88.88
2018-02-09T00:19:48.784Z,88.79
2018-02-09T00:20:48.843Z,88.79
2018-02-09T00:21:48.907Z,88.60
2018-02-09T00:22:48.972Z,88.79
2018-02-09T00:23:49.040Z,88.88
2018-02-09T00:24:49.094Z,88.60
2018-02-09T00:25:49.166Z,88.60
2018-02-09T00:26:49.234Z,88.98
2018-02-09T00:27:49.296Z,89.17
2018-02-09T00:28:49.358Z,88.88
2018-02-09T00:29:49.433Z,88.88
2018-02-09T00:30:49.481Z,88.88
2018-02-09T00:31:49.546Z,89.17
2018-02-09T00:32:49.625Z,88.79
2018-02-09T00:33:49.666Z,88.98
2018-02-09T00:34:49.744Z,88.88
2018-02-09T00:35:49.797Z,88.60
2018-02-09T00:36:49.863Z,88.41
2018-02-09T00:37:49.974Z,88.60
2018-02-09T00:38:49.990Z,88.88
2018-02-09T00:39:50.045Z,88.79
2018-02-09T00:40:50.123Z,88.69
2018-02-09T00:41:50.177Z,88.88
2018-02-09T00:42:50.243Z,88.79
2018-02-09T00:43:50.303Z,88.79
2018-02-09T00:44:50.365Z,88.69
2018-02-09T00:45:50.430Z,88.98
2018-02-09T00:46:50.496Z,88.79
2018-02-09T00:47:50.565Z,88.79
2018-02-09T00:48:50.623Z,89.07
2018-02-09T00:49:50.712Z,88.79
2018-02-09T00:50:50.744Z,88.69
2018-02-09T00:51:50.807Z,88.88
2018-02-09T00:52:50.875Z,88.88
2018-02-09T00:53:51.782Z,88.93
2018-02-09T00:54:51.000Z,89.03
2018-02-09T00:55:51.067Z,88.98
2018-02-09T00:56:51.132Z,88.93
2018-02-09T00:57:55.966Z,88.88
2018-02-09T00:58:51.266Z,88.60
2018-02-09T00:59:51.322Z,88.84
2018-02-09T01:00:51.382Z,88.74
2018-02-09T01:01:51.444Z,88.36
2018-02-09T01:02:51.514Z,88.55
2018-02-09T01:03:51.568Z,88.74
2018-02-09T01:04:51.636Z,88.36
2018-02-09T01:05:51.706Z,88.69
2018-02-09T01:06:51.764Z,88.74
2018-02-09T01:07:51.829Z,88.69
2018-02-09T01:08:51.888Z,88.88
2018-02-09T01:09:51.952Z,88.74
2018-02-09T01:10:52.014Z,88.98
2018-02-09T01:11:52.088Z,88.31
2018-02-09T01:12:52.141Z,88.31
2018-02-09T01:13:52.210Z,88.17
2018-02-09T01:14:52.266Z,88.17
2018-02-09T01:15:52.335Z,88.08
2018-02-09T01:16:52.395Z,88.27
2018-02-09T01:17:52.462Z,88.22
2018-02-09T01:18:52.521Z,88.17
2018-02-09T01:19:52.595Z,88.55
2018-02-09T01:20:52.661Z,88.46
2018-02-09T01:21:52.709Z,88.55
2018-02-09T01:22:52.772Z,88.46
2018-02-09T01:23:52.865Z,88.55
2018-02-09T01:24:52.901Z,88.27
2018-02-09T01:25:53.001Z,89.03
2018-02-09T01:26:53.027Z,89.03
2018-02-09T01:27:53.102Z,88.65
2018-02-09T01:28:53.151Z,88.65
2018-02-09T01:29:53.216Z,88.84
2018-02-09T01:30:53.278Z,88.74
2018-02-09T01:31:53.345Z,88.74
2018-02-09T01:32:53.408Z,88.74
2018-02-09T01:33:53.475Z,88.65
2018-02-09T01:34:53.532Z,88.74
2018-02-09T01:35:53.595Z,88.84
2018-02-09T01:36:53.660Z,88.55
2018-02-09T01:37:53.725Z,88.84
2018-02-09T01:38:53.785Z,88.74
2018-02-09T01:39:53.847Z,89.03
2018-02-09T01:40:53.901Z,89.03
2018-02-09T01:41:53.972Z,88.84
2018-02-09T01:42:54.034Z,88.84
2018-02-09T01:43:54.102Z,89.03
2018-02-09T01:44:54.161Z,88.74
2018-02-09T01:45:54.222Z,88.84
2018-02-09T01:46:54.292Z,88.74
2018-02-09T01:47:54.364Z,88.84
2018-02-09T01:48:54.408Z,88.84
2018-02-09T01:49:54.479Z,88.84
2018-02-09T01:50:54.533Z,88.65
2018-02-09T01:51:54.696Z,88.74
2018-02-09T01:52:54.667Z,88.74
2018-02-09T01:53:54.729Z,88.84
2018-02-09T01:54:54.797Z,88.84
2018-02-09T01:55:54.851Z,88.74
2018-02-09T01:56:54.922Z,89.03
2018-02-09T01:57:54.978Z,88.93
2018-02-09T01:58:55.052Z,88.27
2018-02-09T01:59:55.104Z,88.17
2018-02-09T02:00:55.173Z,88.84
2018-02-09T02:01:55.233Z,88.84
2018-02-09T02:02:55.297Z,88.17
2018-02-09T02:03:55.405Z,88.27
2018-02-09T02:04:55.424Z,88.46
2018-02-09T02:05:55.494Z,88.17
2018-02-09T02:06:55.558Z,88.27
2018-02-09T02:07:55.609Z,88.46
2018-02-09T02:08:55.691Z,88.46
2018-02-09T02:09:55.740Z,88.36
2018-02-09T02:10:55.801Z,88.17
2018-02-09T02:11:55.870Z,88.74
2018-02-09T02:12:55.923Z,88.27
2018-02-09T02:13:55.985Z,88.46
2018-02-09T02:14:56.056Z,88.84
2018-02-09T02:15:56.114Z,88.55
2018-02-09T02:16:56.179Z,88.74
2018-02-09T02:17:56.239Z,88.74
2018-02-09T02:18:56.311Z,88.65
2018-02-09T02:19:56.380Z,88.74
2018-02-09T02:20:56.425Z,88.93
2018-02-09T02:21:56.515Z,88.93
2018-02-09T02:22:56.562Z,88.27
2018-02-09T02:23:56.619Z,88.74
2018-02-09T02:24:56.687Z,88.74
2018-02-09T02:25:56.748Z,88.55
2018-02-09T02:26:56.813Z,88.36
2018-02-09T02:27:56.879Z,88.27
2018-02-09T02:28:56.931Z,88.27
2018-02-09T02:29:57.001Z,88.36
2018-02-09T02:30:57.070Z,88.36
2018-02-09T02:31:57.119Z,88.36
2018-02-09T02:32:57.184Z,88.93
2018-02-09T02:33:57.250Z,88.84
2018-02-09T02:34:57.313Z,88.27
2018-02-09T02:35:57.376Z,88.08
2018-02-09T02:36:57.433Z,88.27
2018-02-09T02:37:57.500Z,88.74
2018-02-09T02:38:57.563Z,88.93
2018-02-09T02:39:57.621Z,88.74
2018-02-09T02:40:57.685Z,88.74
2018-02-09T02:41:57.769Z,88.84
2018-02-09T02:42:57.817Z,88.46
2018-02-09T02:43:57.878Z,88.55
2018-02-09T02:44:57.946Z,88.08
2018-02-09T02:45:58.006Z,88.27
2018-02-09T02:46:58.066Z,88.36
2018-02-09T02:47:58.127Z,88.93
2018-02-09T02:48:58.194Z,88.93
2018-02-09T02:49:58.259Z,88.74
2018-02-09T02:50:58.319Z,88.65
2018-02-09T02:51:58.382Z,88.84
2018-02-09T02:52:58.437Z,88.27
2018-02-09T02:53:58.512Z,89.03
2018-02-09T02:54:58.571Z,88.74
2018-02-09T02:55:58.632Z,88.74
2018-02-09T02:56:58.698Z,88.74
2018-02-09T02:57:58.769Z,88.74
2018-02-09T02:58:58.827Z,89.03
2018-02-09T02:59:58.885Z,88.93
2018-02-09T03:00:58.949Z,89.03
2018-02-09T03:01:59.013Z,88.27
2018-02-09T03:02:59.089Z,88.93
2018-02-09T03:03:59.136Z,88.55
2018-02-09T03:04:59.203Z,88.84
2018-02-09T03:05:59.254Z,88.84
2018-02-09T03:06:59.326Z,88.65
2018-02-09T03:07:59.389Z,88.65
2018-02-09T03:08:59.457Z,88.84
2018-02-09T03:09:59.514Z,88.65
2018-02-09T03:10:59.576Z,88.84
2018-02-09T03:11:59.637Z,88.84
2018-02-09T03:12:59.700Z,88.84
2018-02-09T03:13:59.766Z,88.84
2018-02-09T03:14:59.828Z,88.84
2018-02-09T03:15:59.901Z,88.84
2018-02-09T03:16:59.948Z,88.65
2018-02-09T03:18:00.016Z,88.55
2018-02-09T03:19:00.078Z,88.74
2018-02-09T03:20:00.149Z,88.93
2018-02-09T03:21:00.197Z,88.55
2018-02-09T03:22:00.261Z,88.84
2018-02-09T03:23:00.331Z,89.12
2018-02-09T03:24:00.393Z,89.12
2018-02-09T03:25:00.472Z,88.93
2018-02-09T03:26:00.521Z,88.55
2018-02-09T03:27:00.592Z,88.74
2018-02-09T03:28:00.647Z,88.84
2018-02-09T03:29:00.708Z,88.84
2018-02-09T03:30:00.777Z,88.74
2018-02-09T03:31:00.832Z,88.84
2018-02-09T03:32:00.889Z,88.93
2018-02-09T03:33:00.961Z,89.03
2018-02-09T03:34:01.058Z,88.74
2018-02-09T03:35:01.090Z,89.03
2018-02-09T03:36:01.151Z,89.12
2018-02-09T03:37:01.212Z,88.84
2018-02-09T03:38:01.270Z,88.93
2018-02-09T03:39:01.335Z,88.65
2018-02-09T03:40:01.411Z,88.93
2018-02-09T03:41:01.460Z,88.93
2018-02-09T03:42:01.523Z,89.03
2018-02-09T03:43:01.587Z,88.74
2018-02-09T03:44:01.650Z,88.84
2018-02-09T03:45:01.709Z,88.93
2018-02-09T03:46:01.786Z,88.93
2018-02-09T03:47:02.305Z,88.93
2018-02-09T03:48:01.904Z,88.74
2018-02-09T03:49:01.984Z,89.03
2018-02-09T03:50:02.032Z,88.93
2018-02-09T03:51:02.105Z,88.65
2018-02-09T03:52:02.157Z,88.65
2018-02-09T03:53:02.224Z,88.93
2018-02-09T03:54:02.276Z,88.93
2018-02-09T03:55:02.351Z,88.65
2018-02-09T03:56:02.408Z,88.93
2018-02-09T03:57:02.468Z,89.12
2018-02-09T03:58:02.530Z,88.93
2018-02-09T03:59:02.596Z,89.40
2018-02-09T04:00:02.663Z,89.31
2018-02-09T04:01:02.725Z,89.12
2018-02-09T04:02:02.786Z,89.31
2018-02-09T04:03:02.859Z,89.22
2018-02-09T04:04:02.905Z,89.22
2018-02-09T04:05:02.966Z,89.50
2018-02-09T04:06:03.036Z,89.40
2018-02-09T04:07:03.096Z,89.22
2018-02-09T04:08:03.159Z,89.31
2018-02-09T04:09:03.220Z,89.40
2018-02-09T04:10:03.285Z,89.22
2018-02-09T04:12:44.058Z,89.31
2018-02-09T04:13:35.249Z,89.50
2018-02-09T04:15:28.240Z,89.31
2018-02-09T04:16:28.301Z,89.50
2018-02-09T04:18:21.320Z,89.54
2018-02-09T04:19:21.368Z,89.45
2018-02-09T04:21:14.366Z,89.36
2018-02-09T04:22:14.431Z,89.45
2018-02-09T04:24:07.462Z,89.26
2018-02-09T04:25:07.497Z,88.98
2018-02-09T04:27:00.484Z,89.73
2018-02-09T04:28:00.539Z,89.92
2018-02-09T04:29:55.153Z,89.64
2018-02-09T04:30:53.598Z,89.83
2018-02-09T04:32:46.598Z,89.73
2018-02-09T04:33:46.668Z,89.83
2018-02-09T04:35:39.670Z,89.64
2018-02-09T04:36:39.728Z,89.73
2018-02-09T04:38:32.714Z,89.45
2018-02-09T04:39:32.787Z,89.54
2018-02-09T04:41:26.419Z,89.73
2018-02-09T04:42:26.456Z,89.45
2018-02-09T04:43:26.523Z,89.45
2018-02-09T04:44:26.585Z,89.92
2018-02-09T04:45:26.652Z,89.54
2018-02-09T04:46:26.710Z,89.73
2018-02-09T04:47:26.770Z,89.45
2018-02-09T04:48:26.839Z,89.36
2018-02-09T04:49:26.906Z,89.73
2018-02-09T04:50:26.963Z,89.73
2018-02-09T04:51:27.023Z,89.36
2018-02-09T04:52:27.085Z,89.45
2018-02-09T04:53:27.155Z,89.73
2018-02-09T04:54:27.215Z,90.20
2018-02-09T04:55:27.280Z,89.73
2018-02-09T04:56:27.339Z,90.01
2018-02-09T04:57:27.406Z,89.92
2018-02-09T04:58:27.471Z,90.01
2018-02-09T04:59:27.528Z,89.73
2018-02-09T05:00:27.595Z,90.11
2018-02-09T05:01:27.660Z,89.78
2018-02-09T05:02:27.721Z,89.97
2018-02-09T05:03:27.801Z,90.25
2018-02-09T05:04:27.845Z,89.78
2018-02-09T05:05:27.912Z,90.25
2018-02-09T05:06:27.974Z,90.25
2018-02-09T05:07:28.032Z,90.06
2018-02-09T05:08:28.158Z,89.78
2018-02-09T05:09:28.164Z,89.97
2018-02-09T05:10:28.229Z,90.06
2018-02-09T05:11:28.288Z,90.25
2018-02-09T05:12:28.358Z,89.87
2018-02-09T05:13:28.411Z,89.78
2018-02-09T05:14:28.482Z,89.97
2018-02-09T05:15:28.549Z,90.34
2018-02-09T05:16:28.606Z,89.78
2018-02-09T05:17:28.669Z,90.44
2018-02-09T05:18:28.738Z,90.34
2018-02-09T05:19:28.798Z,90.16
2018-02-09T05:20:28.859Z,90.06
2018-02-09T05:21:28.926Z,90.25
2018-02-09T05:22:28.987Z,90.25
2018-02-09T05:23:29.050Z,90.44
2018-02-09T05:24:29.113Z,90.25
2018-02-09T05:25:29.181Z,90.25
2018-02-09T05:26:29.244Z,90.25
2018-02-09T05:27:29.369Z,90.34
2018-02-09T05:28:29.375Z,90.25
2018-02-09T05:29:29.430Z,90.16
2018-02-09T05:30:29.506Z,90.91
2018-02-09T05:31:29.570Z,90.82
2018-02-09T05:32:29.626Z,90.91
2018-02-09T05:33:29.684Z,90.91
2018-02-09T05:34:29.751Z,90.91
2018-02-09T05:35:29.828Z,90.72
2018-02-09T05:36:29.874Z,90.72
2018-02-09T05:37:29.938Z,90.72
2018-02-09T05:38:30.003Z,90.53
2018-02-09T05:39:30.074Z,90.34
2018-02-09T05:40:30.131Z,90.34
2018-02-09T05:41:30.196Z,91.01
2018-02-09T05:42:30.298Z,91.01
2018-02-09T05:43:30.328Z,90.82
2018-02-09T05:44:30.394Z,90.82
2018-02-09T05:45:30.453Z,90.82
2018-02-09T05:46:30.514Z,90.63
2018-02-09T05:47:30.575Z,91.01
2018-02-09T05:48:30.642Z,90.63
2018-02-09T05:49:30.704Z,90.44
2018-02-09T05:50:30.767Z,90.11
2018-02-09T05:51:30.827Z,90.82
2018-02-09T05:52:30.894Z,90.77
2018-02-09T05:53:30.956Z,90.68
2018-02-09T05:54:31.014Z,90.58
2018-02-09T05:55:31.086Z,90.77
2018-02-09T05:56:31.144Z,91.05
2018-02-09T05:57:31.294Z,90.68
2018-02-09T05:58:31.273Z,90.68
2018-02-09T05:59:31.341Z,90.58
2018-02-09T06:00:31.409Z,90.58
2018-02-09T06:01:31.463Z,91.15
2018-02-09T06:02:31.537Z,90.86
2018-02-09T06:03:31.595Z,90.77
2018-02-09T06:04:31.649Z,90.58
2018-02-09T06:05:31.717Z,90.77
2018-02-09T06:06:31.783Z,91.34
2018-02-09T06:07:31.844Z,90.96
2018-02-09T06:08:31.939Z,90.86
2018-02-09T06:09:31.968Z,90.86
2018-02-09T06:10:32.036Z,91.05
2018-02-09T06:11:32.095Z,91.05
2018-02-09T06:12:32.172Z,91.29
2018-02-09T06:13:32.215Z,91.20
2018-02-09T06:14:32.282Z,91.24
2018-02-09T06:15:32.343Z,91.10
2018-02-09T06:16:32.407Z,91.10
2018-02-09T06:17:32.474Z,91.29
2018-02-09T06:18:32.530Z,91.20
2018-02-09T06:19:32.608Z,91.29
2018-02-09T06:20:32.661Z,91.01
2018-02-09T06:21:32.732Z,90.91
2018-02-09T06:22:32.785Z,90.91
2018-02-09T06:23:32.852Z,91.01
2018-02-09T06:24:32.907Z,90.82
2018-02-09T06:25:32.979Z,90.73
2018-02-09T06:26:33.048Z,90.73
2018-02-09T06:27:33.112Z,90.82
2018-02-09T06:28:33.192Z,90.63
2018-02-09T06:29:33.228Z,90.25
2018-02-09T06:30:33.282Z,90.54
2018-02-09T06:31:33.352Z,90.25
2018-02-09T06:32:33.423Z,90.35
2018-02-09T06:33:33.540Z,90.54
2018-02-09T06:34:33.545Z,90.63
2018-02-09T06:35:33.603Z,90.63
2018-02-09T06:36:33.673Z,90.82
2018-02-09T06:37:33.802Z,90.63
2018-02-09T06:38:33.796Z,90.73
2018-02-09T06:39:33.852Z,90.73
2018-02-09T06:40:33.914Z,90.73
2018-02-09T06:41:33.979Z,90.91
2018-02-09T06:42:34.076Z,90.73
2018-02-09T06:43:34.129Z,90.73
2018-02-09T06:44:34.227Z,90.82
2018-02-09T06:45:34.236Z,90.82
2018-02-09T06:46:34.296Z,90.73
2018-02-09T06:47:34.361Z,90.73
2018-02-09T06:48:34.420Z,90.63
2018-02-09T06:49:34.480Z,90.73
2018-02-09T06:50:34.535Z,90.73
2018-02-09T06:51:34.610Z,90.82
2018-02-09T06:52:34.682Z,90.82
2018-02-09T06:53:34.729Z,90.91
2018-02-09T06:54:34.803Z,90.73
2018-02-09T06:55:34.856Z,90.73
2018-02-09T06:56:34.920Z,90.91
2018-02-09T06:57:34.981Z,90.54
2018-02-09T06:58:35.043Z,90.73
2018-02-09T06:59:35.103Z,90.82
2018-02-09T07:00:35.171Z,90.35
2018-02-09T07:01:35.230Z,90.54
2018-02-09T07:02:35.293Z,90.73
2018-02-09T07:03:35.353Z,90.35
2018-02-09T07:04:35.428Z,90.16
2018-02-09T07:05:35.477Z,90.54
2018-02-09T07:06:35.547Z,90.25
2018-02-09T07:07:35.621Z,89.87
2018-02-09T07:08:35.682Z,90.16
2018-02-09T07:09:35.741Z,90.11
2018-02-09T07:10:35.801Z,90.30
2018-02-09T07:11:35.873Z,89.69
2018-02-09T07:12:35.931Z,90.16
2018-02-09T07:13:35.986Z,89.92
2018-02-09T07:14:36.048Z,89.54
2018-02-09T07:15:36.115Z,89.36
2018-02-09T07:16:36.190Z,89.64
2018-02-09T07:17:36.239Z,88.98
2018-02-09T07:18:36.310Z,89.45
2018-02-09T07:19:36.361Z,89.54
2018-02-09T07:20:36.431Z,89.54
2018-02-09T07:21:36.495Z,89.36
2018-02-09T07:22:36.568Z,89.36
2018-02-09T07:23:36.617Z,89.36
2018-02-09T07:24:36.685Z,89.54
2018-02-09T07:25:36.732Z,88.88
2018-02-09T07:26:36.818Z,89.07
2018-02-09T07:27:36.888Z,88.60
2018-02-09T07:28:36.929Z,88.79
2018-02-09T07:29:36.991Z,88.88
2018-02-09T07:30:37.080Z,88.22
2018-02-09T07:31:37.143Z,88.64
2018-02-09T07:32:37.188Z,88.64
2018-02-09T07:33:37.254Z,88.83
2018-02-09T07:34:37.318Z,88.45
2018-02-09T07:35:37.375Z,88.07
2018-02-09T07:36:37.456Z,88.26
2018-02-09T07:37:37.494Z,87.88
2018-02-09T07:38:37.804Z,87.88
2018-02-09T07:39:37.624Z,88.07
2018-02-09T07:40:37.768Z,87.79
2018-02-09T07:41:37.749Z,87.65
2018-02-09T07:42:37.822Z,85.70
2018-02-09T07:43:37.872Z,83.04
2018-02-09T07:44:37.940Z,80.94
2018-02-09T07:45:38.006Z,78.70
2018-02-09T07:46:38.072Z,76.69
2018-02-09T07:47:38.133Z,75.11
2018-02-09T07:48:38.195Z,73.95
2018-02-09T07:49:38.264Z,73.13
2018-02-09T07:50:38.334Z,71.96
2018-02-09T07:51:38.413Z,70.95
2018-02-09T07:52:38.462Z,69.78
2018-02-09T07:53:38.525Z,68.38
2018-02-09T07:54:38.603Z,68.41
2018-02-09T07:55:38.661Z,67.69
2018-02-09T07:56:38.724Z,66.38
2018-02-09T07:57:38.805Z,65.74
2018-02-09T07:58:38.862Z,65.20
2018-02-09T07:59:38.926Z,64.76
2018-02-09T08:00:38.998Z,64.02
2018-02-09T08:01:39.073Z,62.90
2018-02-09T08:02:39.137Z,62.62
2018-02-09T08:03:39.211Z,63.19
2018-02-09T08:04:39.274Z,63.16
2018-02-09T08:05:39.352Z,64.02
2018-02-09T08:06:39.421Z,64.02
2018-02-09T08:07:39.490Z,64.47
2018-02-09T08:08:39.569Z,64.56
2018-02-09T08:09:39.639Z,65.08
2018-02-09T08:10:39.702Z,64.89
2018-02-09T08:11:39.772Z,64.22
2018-02-09T08:12:39.851Z,63.29
2018-02-09T08:13:39.919Z,62.48
2018-02-09T08:14:39.979Z,61.62
2018-02-09T08:15:40.058Z,61.24
2018-02-09T08:16:40.129Z,60.95
2018-02-09T08:17:40.229Z,60.60
2018-02-09T08:18:40.289Z,59.64
2018-02-09T08:19:40.339Z,59.76
2018-02-09T08:20:40.433Z,59.86
2018-02-09T08:21:40.495Z,59.19
2018-02-09T08:22:40.555Z,59.28
2018-02-09T08:23:40.633Z,59.44
2018-02-09T08:24:40.709Z,59.19
2018-02-09T08:25:40.784Z,58.70
2018-02-09T08:26:40.848Z,58.64
2018-02-09T08:27:40.938Z,58.57
2018-02-09T08:28:41.279Z,57.92
2018-02-09T08:29:41.073Z,57.35
2018-02-09T08:30:41.162Z,58.18
2018-02-09T08:31:41.221Z,57.42
2018-02-09T08:32:41.284Z,57.51
2018-02-09T08:33:41.403Z,57.51
2018-02-09T08:35:41.513Z,57.80
2018-02-09T08:36:41.597Z,57.06
2018-02-09T08:37:41.658Z,56.96
2018-02-09T08:38:41.744Z,56.87
2018-02-09T08:39:41.803Z,56.67
2018-02-09T08:40:41.876Z,57.70
2018-02-09T08:41:41.958Z,58.54
2018-02-09T08:42:42.021Z,59.16
2018-02-09T08:43:42.094Z,60.53
2018-02-09T08:44:42.196Z,61.75
2018-02-09T08:45:42.251Z,62.62
2018-02-09T08:46:42.326Z,62.04
2018-02-09T08:47:42.414Z,61.18
2018-02-09T08:48:42.458Z,60.83
2018-02-09T08:49:42.534Z,61.85
2018-02-09T08:50:42.759Z,62.68
2018-02-09T08:51:42.678Z,63.03
2018-02-09T08:52:42.763Z,63.10
2018-02-09T08:53:42.822Z,64.28
2018-02-09T08:54:42.893Z,65.23
2018-02-09T08:55:42.970Z,64.28
2018-02-09T08:56:43.035Z,63.35
2018-02-09T08:57:43.113Z,62.43
2018-02-09T08:58:43.189Z,63.13
2018-02-09T08:59:43.262Z,64.81
2018-02-09T09:00:43.331Z,65.67
2018-02-09T09:01:43.387Z,64.09
2018-02-09T09:02:43.468Z,62.52
2018-02-09T09:03:43.529Z,60.99
2018-02-09T09:04:43.600Z,59.40
2018-02-09T09:05:43.675Z,58.28
2018-02-09T09:06:43.740Z,58.34
2018-02-09T09:07:43.811Z,59.08
2018-02-09T09:08:43.885Z,60.84
2018-02-09T09:09:43.970Z,62.55
2018-02-09T09:10:44.096Z,62.55
2018-02-09T09:11:44.096Z,63.00
2018-02-09T09:12:44.164Z,63.23
2018-02-09T09:13:44.233Z,62.87
2018-02-09T09:14:44.357Z,62.33
2018-02-09T09:15:44.369Z,61.79
2018-02-09T09:16:44.450Z,61.12
2018-02-09T09:17:44.517Z,62.68
2018-02-09T09:18:44.582Z,64.18
2018-02-09T09:19:44.657Z,64.50
2018-02-09T09:20:44.728Z,63.00
2018-02-09T09:21:44.795Z,62.08
2018-02-09T09:22:44.856Z,61.34
2018-02-09T09:23:44.930Z,60.89
2018-02-09T09:24:45.010Z,60.19
2018-02-09T09:25:45.072Z,58.49
2018-02-09T09:26:45.144Z,58.23
2018-02-09T09:27:45.220Z,57.30
2018-02-09T09:28:45.290Z,57.59
2018-02-09T09:29:45.353Z,58.14
2018-02-09T09:30:45.479Z,58.36
2018-02-09T09:31:45.508Z,58.91
2018-02-09T09:32:45.571Z,59.77
2018-02-09T09:33:45.640Z,60.12
2018-02-09T09:34:45.723Z,60.22
2018-02-09T09:35:45.790Z,60.57
2018-02-09T09:36:45.860Z,60.67
2018-02-09T09:37:45.924Z,61.02
2018-02-09T09:38:46.002Z,60.83
2018-02-09T09:39:46.074Z,61.31
2018-02-09T09:40:46.192Z,61.50
2018-02-09T09:41:46.219Z,61.11
2018-02-09T09:42:46.278Z,61.28
2018-02-09T09:43:46.360Z,62.20
2018-02-09T09:44:46.430Z,63.42
2018-02-09T09:45:46.515Z,63.76
2018-02-09T09:46:46.581Z,63.86
2018-02-09T09:47:46.640Z,64.02
2018-02-09T09:48:46.727Z,65.71
2018-02-09T09:49:46.782Z,66.35
2018-02-09T09:50:46.847Z,67.07
2018-02-09T09:51:46.927Z,67.74
2018-02-09T09:52:46.988Z,67.27
2018-02-09T09:53:47.076Z,67.55
2018-02-09T09:54:47.128Z,67.07
2018-02-09T09:55:47.194Z,66.69
2018-02-09T09:56:47.274Z,66.50
2018-02-09T09:57:47.349Z,66.60
2018-02-09T09:58:47.409Z,65.87
2018-02-09T09:59:47.474Z,63.93
2018-02-09T10:00:47.553Z,62.24
2018-02-09T10:01:47.620Z,62.24
2018-02-09T10:02:47.698Z,61.85
2018-02-09T10:03:47.757Z,62.24
2018-02-09T10:04:47.829Z,62.78
2018-02-09T10:05:47.902Z,62.24
2018-02-09T10:06:47.969Z,62.08
2018-02-09T10:07:48.055Z,60.58
2018-02-09T10:08:48.116Z,59.30
2018-02-09T10:09:48.185Z,59.48
2018-02-09T10:10:48.263Z,58.56
2018-02-09T10:11:48.324Z,58.46
2018-02-09T10:12:48.396Z,57.56
2018-02-09T10:13:48.455Z,56.18
2018-02-09T10:14:48.532Z,54.12
2018-02-09T10:15:48.604Z,53.31
2018-02-09T10:16:48.670Z,51.07
2018-02-09T10:17:48.749Z,49.60
2018-02-09T10:18:48.823Z,48.59
2018-02-09T10:19:48.895Z,48.44
2018-02-09T10:20:48.963Z,47.79
2018-02-09T10:21:49.033Z,47.99
2018-02-09T10:22:49.107Z,48.47
2018-02-09T10:23:49.181Z,48.11
2018-02-09T10:24:49.260Z,48.22
2018-02-09T10:25:49.331Z,47.94
2018-02-09T10:26:49.413Z,47.20
2018-02-09T10:27:49.513Z,46.53
2018-02-09T10:28:49.560Z,46.36
2018-02-09T10:29:49.623Z,47.11
2018-02-09T10:30:49.755Z,47.02
2018-02-09T10:31:49.798Z,48.27
2018-02-09T10:32:49.855Z,49.46
2018-02-09T10:33:49.934Z,50.55
2018-02-09T10:34:50.018Z,52.26
2018-02-09T10:35:50.072Z,51.32
2018-02-09T10:36:50.161Z,50.96
2018-02-09T10:37:50.236Z,49.92
2018-02-09T10:38:50.329Z,48.90
2018-02-09T10:39:50.387Z,48.54
2018-02-09T10:40:50.449Z,47.30
2018-02-09T10:41:50.552Z,47.69
2018-02-09T10:42:50.604Z,47.74
2018-02-09T10:43:50.693Z,48.06
2018-02-09T10:44:50.762Z,47.40
2018-02-09T10:45:50.838Z,46.55
2018-02-09T10:46:50.921Z,46.79
2018-02-09T10:47:50.994Z,46.06
2018-02-09T10:48:51.123Z,45.25
2018-02-09T10:49:51.149Z,44.13
2018-02-09T10:50:51.223Z,43.27
2018-02-09T10:51:51.309Z,42.98
2018-02-09T10:52:51.378Z,43.49
2018-02-09T10:53:51.482Z,42.61
2018-02-09T10:54:51.525Z,42.51
2018-02-09T10:55:51.614Z,42.51
2018-02-09T10:56:51.684Z,42.63
2018-02-09T10:57:51.764Z,42.65
2018-02-09T10:58:51.846Z,42.65
2018-02-09T10:59:51.920Z,42.87
2018-02-09T11:00:52.001Z,42.52
2018-02-09T11:01:52.075Z,41.39
2018-02-09T11:02:52.151Z,41.97
2018-02-09T11:03:52.234Z,41.99
2018-02-09T11:04:52.359Z,40.84
2018-02-09T11:05:52.487Z,40.53
2018-02-09T11:06:52.473Z,41.02
2018-02-09T11:07:52.544Z,40.72
2018-02-09T11:08:52.628Z,40.82
2018-02-09T11:09:52.704Z,41.97
2018-02-09T11:10:52.834Z,41.93
2018-02-09T11:11:52.929Z,42.74
2018-02-09T11:12:52.940Z,42.74
2018-02-09T11:13:53.023Z,44.34
2018-02-09T11:14:53.102Z,44.28
2018-02-09T11:15:53.181Z,44.29
2018-02-09T11:16:53.256Z,48.63
2018-02-09T11:17:53.334Z,49.12
2018-02-09T11:18:53.413Z,50.48
2018-02-09T11:19:53.512Z,51.40
2018-02-09T11:20:53.584Z,50.36
2018-02-09T11:21:53.676Z,51.32
2018-02-09T11:22:53.745Z,53.45
2018-02-09T11:23:53.812Z,54.75
2018-02-09T11:24:53.896Z,54.90
2018-02-09T11:25:53.965Z,51.13
2018-02-09T11:26:54.036Z,48.52
2018-02-09T11:27:54.121Z,51.71
2018-02-09T11:28:54.197Z,54.21
2018-02-09T11:29:54.274Z,53.61
2018-02-09T11:30:54.353Z,54.43
2018-02-09T11:31:54.428Z,51.51
2018-02-09T11:32:54.547Z,52.07
2018-02-09T11:33:54.709Z,52.81
2018-02-09T11:34:54.704Z,54.38
2018-02-09T11:35:54.730Z,56.12
2018-02-09T11:36:54.829Z,57.39
2018-02-09T11:37:54.891Z,59.76
2018-02-09T11:38:54.957Z,60.69
2018-02-09T11:39:55.033Z,61.59
2018-02-09T11:40:55.112Z,61.56
2018-02-09T11:41:55.199Z,60.75
2018-02-09T11:42:55.294Z,60.31
2018-02-09T11:43:55.432Z,61.69
2018-02-09T11:44:55.407Z,63.10
2018-02-09T11:45:55.479Z,64.59
2018-02-09T11:46:55.554Z,65.04
2018-02-09T11:47:55.688Z,66.67
2018-02-09T11:48:55.772Z,66.63
2018-02-09T11:49:55.772Z,65.17
2018-02-09T11:50:55.844Z,63.39
2018-02-09T11:51:55.921Z,62.65
2018-02-09T11:52:55.986Z,60.21
2018-02-09T11:53:56.059Z,55.81
2018-02-09T11:54:56.197Z,55.78
2018-02-09T11:55:56.216Z,53.84
2018-02-09T11:56:56.276Z,51.70
2018-02-09T11:57:56.346Z,51.70
2018-02-09T11:58:56.418Z,49.70
2018-02-09T11:59:56.486Z,50.16
2018-02-09T12:00:56.565Z,53.27
2018-02-09T12:01:56.635Z,53.22
2018-02-09T12:02:56.711Z,54.32
2018-02-09T12:03:56.781Z,52.97
2018-02-09T12:04:57.046Z,52.19
2018-02-09T12:05:56.932Z,50.93
2018-02-09T12:06:57.061Z,51.39
2018-02-09T12:07:57.085Z,54.46
2018-02-09T12:08:57.153Z,56.36
2018-02-09T12:09:57.230Z,57.39
2018-02-09T12:10:57.308Z,56.98
2018-02-09T12:11:57.380Z,58.36
2018-02-09T12:12:57.455Z,60.22
2018-02-09T12:13:57.515Z,60.72
2018-02-09T12:14:57.593Z,58.48
2018-02-09T12:15:57.664Z,56.04
2018-02-09T12:16:57.741Z,55.40
2018-02-09T12:17:57.805Z,56.01
2018-02-09T12:18:57.883Z,58.20
2018-02-09T12:19:57.957Z,59.48
2018-02-09T12:20:58.025Z,61.56
2018-02-09T12:21:58.108Z,59.51
2018-02-09T12:22:58.175Z,57.51
2018-02-09T12:23:58.242Z,54.44
2018-02-09T12:24:58.317Z,51.34
2018-02-09T12:25:58.388Z,50.21
2018-02-09T12:26:58.460Z,49.65
2018-02-09T12:27:58.537Z,51.01
2018-02-09T12:28:58.605Z,49.82
2018-02-09T12:29:58.691Z,48.44
2018-02-09T12:30:58.753Z,47.81
2018-02-09T12:31:58.826Z,46.96
2018-02-09T12:32:58.894Z,47.25
2018-02-09T12:33:58.994Z,47.06
2018-02-09T12:34:59.052Z,47.20
2018-02-09T12:35:59.122Z,46.45
2018-02-09T12:36:59.208Z,46.20
2018-02-09T12:37:59.364Z,46.11
2018-02-09T12:38:59.355Z,46.13
2018-02-09T12:39:59.422Z,45.84
2018-02-09T12:40:59.497Z,45.74
2018-02-09T12:41:59.572Z,46.23
2018-02-09T12:42:59.659Z,46.32
2018-02-09T12:43:59.724Z,46.61
2018-02-09T12:44:59.805Z,47.39
2018-02-09T12:45:59.879Z,48.46
2018-02-09T12:46:59.972Z,48.44
2018-02-09T12:48:00.043Z,48.34
2018-02-09T12:49:00.845Z,48.68
2018-02-09T12:50:00.179Z,48.58
2018-02-09T12:51:00.268Z,48.54
2018-02-09T12:52:00.335Z,48.49
2018-02-09T12:53:00.411Z,49.82
2018-02-09T12:54:00.499Z,49.99
2018-02-09T12:55:00.571Z,50.35
2018-02-09T12:56:00.646Z,50.65
2018-02-09T12:57:00.718Z,51.40
2018-02-09T12:58:00.794Z,51.76
2018-02-09T12:59:00.876Z,52.05
2018-02-09T13:00:00.958Z,52.22
2018-02-09T13:01:01.030Z,53.25
2018-02-09T13:02:01.098Z,53.61
2018-02-09T13:03:01.170Z,53.88
2018-02-09T13:04:01.251Z,54.33
2018-02-09T13:05:01.332Z,54.47